Avon, Illinois
Current Conditions -  °F | °C
As of 11:15 PM on Saturday 25 Oct 2014 (Local Time) from KMQB Reporting Station
Clear Clear  
Wind Chill: 50°   Ceiling: Unl
Heat Index: 50°   Visibility: 10mi
Dew Point: 39°   Wind: 7mph
Humidity: 65%   Direction: 340°NNW
Pressure: 30.07"   Gusts: NA
Location:  40.66°N, 90.43°W
Report Text: KMQB 260415Z AUTO 34006KT 10SM CLR 10/04 A3007 RMK AO2 T01020038
Loading
Personal Weather Stations






























Interactive Weather Map
Tropical Storm Tracking
New forecast layout! Learn more

10-Day Weather Forecast

Advertisements
Track Severe Weather on mobile